Terminal Aerodrome Forecast
Issued by NWS

Home | Current Version | Previous Version | Graphics & Text | Print | Product List | Glossary On
Versions: 1 2 3 4 5 6 7 8 9 10 11 12 13 14 15 16 17
000
FTUS43 KBIS 240500
TAFJMS
TAF
KJMS 240533Z 2406/2506 33021G28KT P6SM -SN SCT012 BKN015 OVC022
      TEMPO 2406/2410 5SM -SN OVC012
     FM241500 33020G26KT P6SM SCT015 BKN020
     FM241800 33020G28KT P6SM SCT025
     FM250000 31010KT P6SM SCT080
     FM250400 29008KT P6SM BKN035 OVC080=

USA.gov is the U.S. government's official web portal to all federal, state and local government web resources and services.